Time;durP1;ratioP1;P1;durP2;ratioP2;P2;SDS_P1;SDS_P2;PMS_P1;PMS_P2;Temp;Humidity;BMP_temperature;BMP_pressure;BME280_temperature;BME280_humidity;BME280_pressure;Samples;Min_cycle;Max_cycle;Signal;HPM_P1;HPM_P2
2023/11/10 00:02:08;;;;;;;0.90;0.35;;;9.20;99.90;;;;;;5030660;28;20438;-70
2023/11/10 00:04:36;;;;;;;0.20;0.20;;;9.20;99.90;;;;;;5030085;28;20025;-70
2023/11/10 00:07:05;;;;;;;0.10;0.10;;;9.20;99.90;;;;;;5029228;28;20541;-70
2023/11/10 00:09:34;;;;;;;0.00;0.00;;;9.20;99.90;;;;;;5029769;28;20490;-70
2023/11/10 00:12:01;;;;;;;0.10;0.10;;;9.20;99.90;;;;;;5013276;28;20067;-70
2023/11/10 00:14:33;;;;;;;0.00;0.00;;;9.10;99.90;;;;;;5030538;28;20033;-70
2023/11/10 00:16:58;;;;;;;0.00;0.00;;;9.10;99.90;;;;;;5014716;28;20053;-70
2023/11/10 00:19:24;;;;;;;0.10;0.10;;;9.10;99.90;;;;;;5032054;28;20457;-70
2023/11/10 00:21:50;;;;;;;0.75;0.73;;;9.00;99.90;;;;;;5033380;28;20037;-70
2023/11/10 00:24:18;;;;;;;0.30;0.30;;;8.90;99.90;;;;;;5033760;28;20405;-70
2023/11/10 00:26:44;;;;;;;0.10;0.10;;;8.90;99.90;;;;;;5033797;28;20087;-70
2023/11/10 00:29:10;;;;;;;0.00;0.00;;;8.80;99.90;;;;;;5034102;28;20021;-70
2023/11/10 00:31:36;;;;;;;0.70;0.47;;;8.90;99.90;;;;;;5034204;28;20040;-70
2023/11/10 00:34:02;;;;;;;2.63;0.65;;;8.80;99.90;;;;;;5033571;28;20033;-70
2023/11/10 00:36:27;;;;;;;0.45;0.40;;;8.80;99.90;;;;;;5033903;28;20350;-70
2023/11/10 00:38:53;;;;;;;0.15;0.15;;;8.80;99.90;;;;;;5034102;28;20110;-71
2023/11/10 00:41:19;;;;;;;0.10;0.10;;;8.70;99.90;;;;;;5031747;28;20037;-70
2023/11/10 00:43:45;;;;;;;0.10;0.10;;;8.70;99.90;;;;;;5034119;28;20041;-70
2023/11/10 00:46:10;;;;;;;0.10;0.10;;;8.80;99.90;;;;;;5032560;28;20033;-70
2023/11/10 00:48:38;;;;;;;0.10;0.10;;;8.70;99.90;;;;;;5034030;28;20040;-70
2023/11/10 00:51:04;;;;;;;0.28;0.20;;;8.70;99.90;;;;;;5032775;28;20033;-70
2023/11/10 00:53:29;;;;;;;0.10;0.10;;;8.70;99.90;;;;;;5016273;28;20037;-70
2023/11/10 00:55:55;;;;;;;1.58;0.30;;;8.70;99.90;;;;;;5031409;28;20038;-70
2023/11/10 00:58:21;;;;;;;0.10;0.10;;;8.70;99.90;;;;;;5033906;28;20425;-70
2023/11/10 01:00:47;;;;;;;0.28;0.28;;;8.70;99.90;;;;;;5032725;28;20100;-70
2023/11/10 01:03:12;;;;;;;0.00;0.00;;;8.70;99.90;;;;;;5032366;28;20026;-70
2023/11/10 01:05:38;;;;;;;0.68;0.22;;;8.60;99.90;;;;;;5031352;28;20452;-70
2023/11/10 01:08:08;;;;;;;0.80;0.40;;;8.60;99.90;;;;;;5033527;28;20026;-70
2023/11/10 01:10:34;;;;;;;0.22;0.22;;;8.60;99.90;;;;;;5032870;28;20029;-70
2023/11/10 01:12:59;;;;;;;0.10;0.10;;;8.60;99.90;;;;;;5033543;28;20540;-70
2023/11/10 01:15:26;;;;;;;0.00;0.00;;;8.60;99.90;;;;;;5032739;28;20520;-70
2023/11/10 01:17:52;;;;;;;0.10;0.10;;;8.60;99.90;;;;;;5032014;28;20041;-70
2023/11/10 01:20:18;;;;;;;0.52;0.30;;;8.60;99.90;;;;;;5032813;28;20038;-70
2023/11/10 01:22:43;;;;;;;0.90;0.15;;;8.50;99.90;;;;;;5015404;28;20504;-70
2023/11/10 01:25:13;;;;;;;0.00;0.00;;;8.50;99.90;;;;;;5031476;28;20025;-70
2023/11/10 01:27:43;;;;;;;0.10;0.10;;;8.40;99.90;;;;;;5031201;28;20033;-70
2023/11/10 01:30:12;;;;;;;0.10;0.10;;;8.30;99.90;;;;;;5030447;28;20797;-69
2023/11/10 01:32:38;;;;;;;0.00;0.00;;;8.30;99.90;;;;;;5015341;28;20041;-70
2023/11/10 01:35:04;;;;;;;0.40;0.20;;;8.30;99.90;;;;;;5032564;28;20040;-69
2023/11/10 01:37:30;;;;;;;0.85;0.38;;;8.30;99.90;;;;;;5032936;28;20032;-69
2023/11/10 01:39:57;;;;;;;0.10;0.10;;;8.30;99.90;;;;;;5030573;28;20041;-69
2023/11/10 01:42:23;;;;;;;0.55;0.55;;;8.40;99.90;;;;;;5033203;28;20460;-69
2023/11/10 01:44:49;;;;;;;0.57;0.45;;;8.40;99.90;;;;;;5032030;28;20041;-69
2023/11/10 01:47:15;;;;;;;0.00;0.00;;;8.40;99.90;;;;;;5031328;28;20043;-69
2023/11/10 01:49:41;;;;;;;0.10;0.10;;;8.40;99.90;;;;;;5030726;28;20492;-69
2023/11/10 01:52:08;;;;;;;1.42;1.33;;;8.40;99.90;;;;;;5031761;28;20540;-69
2023/11/10 01:54:36;;;;;;;1.95;0.50;;;8.30;99.90;;;;;;5030947;28;20033;-69
2023/11/10 01:57:04;;;;;;;0.05;0.05;;;8.30;99.90;;;;;;5014791;28;20461;-70
2023/11/10 01:59:33;;;;;;;0.30;0.30;;;8.40;99.90;;;;;;5030713;28;20561;-70
2023/11/10 02:02:00;;;;;;;0.65;0.63;;;8.30;99.90;;;;;;5014584;28;20018;-70
2023/11/10 02:04:26;;;;;;;0.00;0.00;;;8.30;99.90;;;;;;5029753;28;20076;-70
2023/11/10 02:06:52;;;;;;;0.00;0.00;;;8.30;99.90;;;;;;5035756;28;20021;-70
2023/11/10 02:09:18;;;;;;;2.25;0.75;;;8.30;99.90;;;;;;5011701;28;20026;-70
2023/11/10 02:11:45;;;;;;;0.00;0.00;;;8.30;99.90;;;;;;5031356;28;20025;-71
2023/11/10 02:14:13;;;;;;;0.10;0.10;;;8.30;99.90;;;;;;5013308;28;20446;-71
2023/11/10 02:16:39;;;;;;;1.70;0.10;;;8.50;99.90;;;;;;5034306;28;20041;-71
2023/11/10 02:19:07;;;;;;;0.90;0.20;;;8.50;99.90;;;;;;5031312;28;20025;-71
2023/11/10 02:21:33;;;;;;;0.28;0.28;;;8.50;99.90;;;;;;5025191;28;20037;-70
2023/11/10 02:24:08;;;;;;;0.63;0.63;;;8.60;99.90;;;;;;5014126;28;20072;-70
2023/11/10 02:26:34;;;;;;;0.00;0.00;;;8.70;99.90;;;;;;5026709;28;20044;-70
2023/11/10 02:29:01;;;;;;;0.00;0.00;;;8.70;99.90;;;;;;5013962;28;20033;-70
2023/11/10 02:31:26;;;;;;;0.10;0.10;;;8.70;99.90;;;;;;5031699;28;20060;-71
2023/11/10 02:33:53;;;;;;;0.22;0.17;;;8.70;99.90;;;;;;5031638;28;20029;-70
2023/11/10 02:36:20;;;;;;;0.10;0.10;;;8.70;99.90;;;;;;5030502;28;20398;-70
2023/11/10 02:38:47;;;;;;;0.10;0.10;;;8.70;99.90;;;;;;5014033;28;20057;-70
2023/11/10 02:41:13;;;;;;;0.38;0.20;;;8.60;99.90;;;;;;4997544;28;20091;-70
2023/11/10 02:43:39;;;;;;;0.28;0.20;;;8.60;99.90;;;;;;5013857;28;20052;-70
2023/11/10 02:46:05;;;;;;;0.00;0.00;;;8.70;99.90;;;;;;5013053;28;20034;-70
2023/11/10 02:48:32;;;;;;;0.20;0.20;;;8.70;99.90;;;;;;5013562;28;20024;-70
2023/11/10 02:50:58;;;;;;;0.10;0.10;;;8.70;99.90;;;;;;5012724;28;20029;-70
2023/11/10 02:53:24;;;;;;;0.10;0.10;;;8.70;99.90;;;;;;4993926;28;20068;-71
2023/11/10 02:55:50;;;;;;;0.10;0.10;;;8.70;99.90;;;;;;5027228;28;20446;-71
2023/11/10 02:58:16;;;;;;;0.10;0.10;;;8.70;99.90;;;;;;5030116;28;20563;-71
2023/11/10 03:00:43;;;;;;;1.08;1.08;;;8.70;99.90;;;;;;5013245;28;20488;-70
2023/11/10 03:03:13;;;;;;;0.13;0.10;;;8.80;99.90;;;;;;5013482;28;20025;-70
2023/11/10 03:05:39;;;;;;;0.43;0.30;;;8.70;99.90;;;;;;5013759;28;20125;-70
2023/11/10 03:08:06;;;;;;;0.20;0.15;;;8.80;99.90;;;;;;5029586;28;20338;-71
2023/11/10 03:10:32;;;;;;;0.80;0.40;;;8.80;99.90;;;;;;5013077;28;20037;-69
2023/11/10 03:12:59;;;;;;;0.63;0.57;;;8.70;99.90;;;;;;5013591;28;20033;-71
2023/11/10 03:15:26;;;;;;;0.00;0.00;;;8.80;99.90;;;;;;5036131;28;20033;-71
2023/11/10 03:17:53;;;;;;;0.10;0.10;;;8.80;99.90;;;;;;5012776;28;20056;-71
2023/11/10 03:20:19;;;;;;;0.13;0.13;;;8.80;99.90;;;;;;5029865;28;20025;-71
2023/11/10 03:22:46;;;;;;;0.10;0.10;;;8.80;99.90;;;;;;5030970;28;20021;-70
2023/11/10 03:25:11;;;;;;;0.30;0.30;;;8.70;99.90;;;;;;5006604;28;20457;-70
2023/11/10 03:27:38;;;;;;;0.25;0.20;;;8.80;99.90;;;;;;5013090;28;20059;-70
2023/11/10 03:30:05;;;;;;;0.10;0.10;;;8.70;99.90;;;;;;5029943;28;20513;-70
2023/11/10 03:32:34;;;;;;;0.20;0.17;;;8.70;99.90;;;;;;5030853;28;20444;-70
2023/11/10 03:35:00;;;;;;;0.10;0.10;;;8.70;99.90;;;;;;5013010;28;20048;-70
2023/11/10 03:37:26;;;;;;;0.28;0.20;;;8.80;99.90;;;;;;5012792;28;20033;-70
2023/11/10 03:39:52;;;;;;;2.45;0.73;;;8.80;99.90;;;;;;5012376;28;20180;-69
2023/11/10 03:42:17;;;;;;;0.10;0.10;;;8.80;99.90;;;;;;5013172;28;20466;-69
2023/11/10 03:44:43;;;;;;;0.20;0.20;;;8.70;99.90;;;;;;5012570;28;20025;-70
2023/11/10 03:47:09;;;;;;;2.28;0.52;;;8.70;99.90;;;;;;5029136;28;20033;-70
2023/11/10 03:49:37;;;;;;;0.10;0.10;;;8.70;99.90;;;;;;5029575;28;20045;-70
2023/11/10 03:52:03;;;;;;;0.10;0.10;;;8.70;99.90;;;;;;5032489;28;20030;-70
2023/11/10 03:54:30;;;;;;;0.20;0.20;;;8.80;99.90;;;;;;5033803;28;20045;-70
2023/11/10 03:56:56;;;;;;;0.40;0.15;;;8.80;99.90;;;;;;5033458;28;20025;-70
2023/11/10 03:59:22;;;;;;;0.50;0.47;;;8.70;99.90;;;;;;5016562;28;20049;-70
2023/11/10 04:01:48;;;;;;;0.95;0.47;;;8.70;99.90;;;;;;5016979;28;20087;-70
2023/11/10 04:04:13;;;;;;;0.30;0.13;;;8.70;99.90;;;;;;5015495;28;20026;-70
2023/11/10 04:06:39;;;;;;;0.00;0.00;;;8.70;99.90;;;;;;5032985;28;20359;-70
2023/11/10 04:09:05;;;;;;;0.52;0.40;;;8.70;99.90;;;;;;5015473;28;20029;-70
2023/11/10 04:11:30;;;;;;;2.60;0.40;;;8.70;99.90;;;;;;5028361;28;20021;-70
2023/11/10 04:13:56;;;;;;;0.00;0.00;;;8.70;99.90;;;;;;5034195;28;20026;-70
2023/11/10 04:16:24;;;;;;;0.00;0.00;;;8.70;99.90;;;;;;5038215;28;20041;-70
2023/11/10 04:18:52;;;;;;;3.83;1.08;;;8.70;99.90;;;;;;5016949;28;20029;-70
2023/11/10 04:21:24;;;;;;;0.22;0.20;;;8.70;99.90;;;;;;5016469;28;20030;-70
2023/11/10 04:23:50;;;;;;;0.55;0.20;;;8.70;99.90;;;;;;5017049;28;20409;-70
2023/11/10 04:26:17;;;;;;;0.08;0.08;;;8.70;99.90;;;;;;5033746;28;20025;-70
2023/11/10 04:28:47;;;;;;;0.98;0.30;;;8.70;99.90;;;;;;5016507;28;20087;-70
2023/11/10 04:31:17;;;;;;;1.80;0.77;;;8.70;99.90;;;;;;5016773;28;20079;-70
2023/11/10 04:33:43;;;;;;;0.28;0.28;;;8.70;99.90;;;;;;5034191;28;20853;-70
2023/11/10 04:36:12;;;;;;;0.57;0.30;;;8.70;99.90;;;;;;5033483;28;20038;-70
2023/11/10 04:38:39;;;;;;;2.50;0.28;;;8.70;99.90;;;;;;5034335;28;20485;-70
2023/11/10 04:41:05;;;;;;;0.15;0.10;;;8.70;99.90;;;;;;5015885;28;20033;-70
2023/11/10 04:43:31;;;;;;;0.32;0.20;;;8.70;99.90;;;;;;5016147;28;20029;-70
2023/11/10 04:45:57;;;;;;;1.55;0.70;;;8.80;99.90;;;;;;5033158;28;20144;-71
2023/11/10 04:48:23;;;;;;;0.20;0.20;;;8.70;99.90;;;;;;5016117;28;20541;-70
2023/11/10 04:50:48;;;;;;;0.08;0.08;;;8.70;99.90;;;;;;5033583;28;20061;-70
2023/11/10 04:53:14;;;;;;;0.10;0.10;;;8.70;99.90;;;;;;5016554;28;20040;-70
2023/11/10 04:55:40;;;;;;;3.20;0.95;;;8.70;99.90;;;;;;5016084;28;20033;-70
2023/11/10 04:58:06;;;;;;;0.00;0.00;;;8.70;99.90;;;;;;5033682;28;20040;-70
2023/11/10 05:00:36;;;;;;;0.47;0.40;;;8.70;99.90;;;;;;5015523;28;20140;-70
2023/11/10 05:03:03;;;;;;;4.40;0.28;;;8.70;99.90;;;;;;5015706;28;20083;-70
2023/11/10 05:05:29;;;;;;;0.30;0.20;;;8.80;99.90;;;;;;5032900;28;20041;-70
2023/11/10 05:07:55;;;;;;;0.15;0.15;;;8.70;99.90;;;;;;5033402;28;20053;-70
2023/11/10 05:10:21;;;;;;;0.10;0.10;;;8.70;99.90;;;;;;5033106;28;20038;-70
2023/11/10 05:12:47;;;;;;;0.10;0.10;;;8.70;99.90;;;;;;5033836;28;20551;-69
2023/11/10 05:15:14;;;;;;;0.10;0.10;;;8.70;99.90;;;;;;5038628;28;20037;-70
2023/11/10 05:17:44;;;;;;;0.93;0.22;;;8.70;99.90;;;;;;5015882;28;20037;-70
2023/11/10 05:20:11;;;;;;;0.00;0.00;;;8.70;99.90;;;;;;5032457;28;20052;-69
2023/11/10 05:22:42;;;;;;;0.35;0.25;;;8.70;99.90;;;;;;5016034;28;20378;-70
2023/11/10 05:25:08;;;;;;;0.20;0.20;;;8.70;99.90;;;;;;5032512;28;20459;-70
2023/11/10 05:27:34;;;;;;;0.20;0.20;;;8.70;99.90;;;;;;5032971;28;20755;-70
2023/11/10 05:30:00;;;;;;;0.22;0.10;;;8.70;99.90;;;;;;5032424;28;20117;-70
2023/11/10 05:32:27;;;;;;;0.47;0.32;;;8.70;99.90;;;;;;5033351;28;20025;-70
2023/11/10 05:34:54;;;;;;;0.00;0.00;;;8.70;99.90;;;;;;5014682;28;20034;-70
2023/11/10 05:37:24;;;;;;;1.08;0.43;;;8.70;99.90;;;;;;5014856;28;20033;-70
2023/11/10 05:39:53;;;;;;;0.05;0.05;;;8.70;99.90;;;;;;5032288;28;20409;-71
2023/11/10 05:42:22;;;;;;;0.10;0.10;;;8.60;99.90;;;;;;5034413;22;20050;-72
2023/11/10 05:44:49;;;;;;;0.82;0.32;;;8.60;99.90;;;;;;5008577;28;20495;-73
2023/11/10 05:47:16;;;;;;;0.10;0.10;;;8.60;99.90;;;;;;4987626;28;20467;-71
2023/11/10 05:49:42;;;;;;;0.08;0.08;;;8.60;99.90;;;;;;4985743;28;20066;-72
2023/11/10 05:52:12;;;;;;;0.00;0.00;;;8.70;99.90;;;;;;4992479;28;20506;-71
2023/11/10 05:54:39;;;;;;;0.20;0.20;;;8.60;99.90;;;;;;4992413;28;20035;-71
2023/11/10 05:57:06;;;;;;;0.22;0.20;;;8.60;99.90;;;;;;5006091;28;20037;-72
2023/11/10 06:00:05;;;;;;;0.50;0.50;;;8.60;99.90;;;;;;5006784;28;20023;-73
2023/11/10 06:02:31;;;;;;;0.10;0.10;;;8.60;99.90;;;;;;4995089;28;20045;-73
2023/11/10 06:04:57;;;;;;;0.25;0.25;;;8.70;99.90;;;;;;4984543;28;20022;-72
2023/11/10 06:07:23;;;;;;;0.20;0.10;;;8.70;99.90;;;;;;4998771;28;20376;-73
2023/11/10 06:09:50;;;;;;;0.30;0.30;;;8.70;99.90;;;;;;4988327;28;20069;-72
2023/11/10 06:12:17;;;;;;;2.63;0.10;;;8.70;99.90;;;;;;4993886;28;20422;-72
2023/11/10 06:14:43;;;;;;;3.50;0.30;;;8.80;99.90;;;;;;5000002;28;20029;-71
2023/11/10 06:17:10;;;;;;;0.17;0.17;;;8.70;99.90;;;;;;4994007;28;20038;-71
2023/11/10 06:19:36;;;;;;;0.65;0.30;;;8.70;99.90;;;;;;4996433;28;20104;-71
2023/11/10 06:22:02;;;;;;;0.10;0.10;;;8.80;99.90;;;;;;5015350;28;20035;-72
2023/11/10 06:24:28;;;;;;;1.70;0.30;;;8.80;99.90;;;;;;5003328;28;20022;-71
2023/11/10 06:26:53;;;;;;;0.45;0.45;;;8.80;99.90;;;;;;4999465;28;20041;-71
2023/11/10 06:29:19;;;;;;;0.10;0.10;;;8.70;99.90;;;;;;4992595;28;20030;-71
2023/11/10 06:31:46;;;;;;;0.00;0.00;;;8.70;99.90;;;;;;4995463;28;20560;-73
2023/11/10 06:34:12;;;;;;;0.73;0.20;;;8.70;99.90;;;;;;4994655;28;20027;-72
2023/11/10 06:36:37;;;;;;;0.38;0.20;;;8.60;99.90;;;;;;4995074;28;20026;-71
2023/11/10 06:39:04;;;;;;;3.20;1.13;;;8.60;99.90;;;;;;4995553;28;20509;-72
2023/11/10 06:41:29;;;;;;;0.10;0.10;;;8.70;99.90;;;;;;4994396;28;20109;-71
2023/11/10 06:43:55;;;;;;;0.10;0.10;;;8.70;99.90;;;;;;4989081;28;20437;-71
2023/11/10 06:46:23;;;;;;;0.40;0.22;;;8.80;99.90;;;;;;4991487;28;20035;-72
2023/11/10 06:48:53;;;;;;;0.08;0.08;;;8.70;99.90;;;;;;4990583;28;20034;-71
2023/11/10 06:51:20;;;;;;;0.10;0.10;;;8.60;99.90;;;;;;4990996;28;20422;-72
2023/11/10 06:53:45;;;;;;;0.08;0.08;;;8.60;99.90;;;;;;4990958;28;20038;-71
2023/11/10 06:56:11;;;;;;;0.38;0.30;;;8.50;99.90;;;;;;4998701;28;22355;-72
2023/11/10 06:58:39;;;;;;;5.22;0.20;;;8.50;99.90;;;;;;4991268;28;20041;-71
2023/11/10 07:01:06;;;;;;;1.02;0.63;;;8.60;99.90;;;;;;4995021;28;20406;-70
2023/11/10 07:03:33;;;;;;;0.00;0.00;;;8.50;99.90;;;;;;4987186;28;20023;-69
2023/11/10 07:05:59;;;;;;;0.43;0.40;;;8.60;99.90;;;;;;5010806;28;20109;-70
2023/11/10 07:08:25;;;;;;;0.20;0.20;;;8.50;99.90;;;;;;4990749;28;20375;-70
2023/11/10 07:10:57;;;;;;;0.00;0.00;;;8.60;99.90;;;;;;5006314;28;20089;-73
2023/11/10 07:13:23;;;;;;;0.00;0.00;;;8.60;99.90;;;;;;4999517;28;20040;-72
2023/11/10 07:15:49;;;;;;;0.10;0.10;;;8.60;99.90;;;;;;5008096;28;20034;-78
2023/11/10 07:18:17;;;;;;;0.55;0.20;;;8.60;99.90;;;;;;4993667;28;20026;-76
2023/11/10 07:20:44;;;;;;;0.10;0.10;;;8.60;99.90;;;;;;4995518;28;20029;-75
2023/11/10 07:23:11;;;;;;;1.95;0.60;;;8.60;99.90;;;;;;4992824;28;20109;-78
2023/11/10 07:25:37;;;;;;;0.08;0.08;;;8.60;99.90;;;;;;5007818;28;20499;-77
2023/11/10 07:28:03;;;;;;;0.00;0.00;;;8.60;99.90;;;;;;4997468;28;20034;-76
2023/11/10 07:30:29;;;;;;;0.15;0.15;;;8.70;99.90;;;;;;4970623;28;20043;-78
2023/11/10 07:32:55;;;;;;;0.10;0.10;;;8.70;99.90;;;;;;5002385;28;20032;-80
2023/11/10 07:35:21;;;;;;;1.88;0.55;;;8.70;99.90;;;;;;4981888;28;20034;-75
2023/11/10 07:37:53;;;;;;;0.20;0.20;;;8.80;99.90;;;;;;4998683;28;20041;-77
2023/11/10 07:40:19;;;;;;;0.10;0.10;;;8.80;99.90;;;;;;5009677;28;20110;-75
2023/11/10 07:42:47;;;;;;;0.10;0.10;;;8.80;99.90;;;;;;4996326;28;20053;-76
2023/11/10 07:45:14;;;;;;;1.10;0.85;;;8.80;99.90;;;;;;4993276;28;20042;-78
2023/11/10 07:47:50;;;;;;;0.10;0.10;;;8.80;99.90;;;;;;4977445;28;21017;-79
2023/11/10 07:50:18;;;;;;;0.63;0.40;;;8.80;99.90;;;;;;4983363;28;20041;-75
2023/11/10 07:52:49;;;;;;;0.35;0.35;;;8.80;99.90;;;;;;5003236;28;20060;-77
2023/11/10 07:55:16;;;;;;;0.13;0.13;;;8.80;99.90;;;;;;4982669;28;20475;-78
2023/11/10 07:57:42;;;;;;;2.85;0.20;;;8.90;99.90;;;;;;5000538;28;20030;-76
2023/11/10 08:00:13;;;;;;;6.80;0.40;;;8.90;99.90;;;;;;4983762;28;20034;-78
2023/11/10 08:02:40;;;;;;;0.53;0.40;;;8.90;99.90;;;;;;4990827;28;20126;-76
2023/11/10 08:05:06;;;;;;;0.10;0.10;;;8.90;99.90;;;;;;4992581;28;20027;-75
2023/11/10 08:07:32;;;;;;;0.10;0.10;;;9.00;99.90;;;;;;4993205;28;20037;-77
2023/11/10 08:10:02;;;;;;;5.68;0.43;;;9.00;99.90;;;;;;5016707;28;20089;-78
2023/11/10 08:12:29;;;;;;;0.50;0.50;;;9.00;99.90;;;;;;4976822;28;20026;-78
2023/11/10 08:14:56;;;;;;;2.00;0.22;;;9.00;99.90;;;;;;4992796;28;20061;-78
2023/11/10 08:17:23;;;;;;;0.20;0.20;;;9.10;99.90;;;;;;5001170;28;20061;-74
2023/11/10 08:19:48;;;;;;;0.25;0.17;;;9.20;99.90;;;;;;4992276;28;20204;-73
2023/11/10 08:22:14;;;;;;;0.10;0.10;;;9.40;99.90;;;;;;4981785;28;20566;-73
2023/11/10 08:24:40;;;;;;;1.38;0.20;;;9.50;99.90;;;;;;4991443;28;20026;-74
2023/11/10 08:27:06;;;;;;;0.10;0.10;;;9.60;99.90;;;;;;4987894;28;20039;-74
2023/11/10 08:29:32;;;;;;;1.25;0.35;;;9.70;99.90;;;;;;4995503;28;20034;-74
2023/11/10 08:31:58;;;;;;;0.20;0.20;;;9.50;99.90;;;;;;4970271;28;20066;-74
2023/11/10 08:34:24;;;;;;;0.10;0.10;;;9.40;99.90;;;;;;5008380;28;20034;-73
2023/11/10 08:36:50;;;;;;;0.77;0.15;;;9.40;99.90;;;;;;4989918;28;20577;-74
2023/11/10 08:39:18;;;;;;;0.20;0.20;;;9.50;99.90;;;;;;4997235;28;20048;-74
2023/11/10 08:41:51;;;;;;;0.10;0.10;;;9.50;99.90;;;;;;5003819;28;20463;-73
2023/11/10 08:44:18;;;;;;;0.55;0.38;;;9.50;99.90;;;;;;4982443;28;20089;-72
2023/11/10 08:46:45;;;;;;;0.20;0.20;;;9.60;99.90;;;;;;4992355;28;20092;-73
2023/11/10 08:49:11;;;;;;;0.22;0.17;;;9.60;99.90;;;;;;4994926;28;20359;-73
2023/11/10 08:51:38;;;;;;;2.47;0.73;;;9.70;99.90;;;;;;4997782;28;20034;-73
2023/11/10 08:54:05;;;;;;;0.10;0.10;;;9.80;99.90;;;;;;4978215;28;20033;-75
2023/11/10 08:56:31;;;;;;;0.30;0.20;;;9.90;99.90;;;;;;4992188;28;20483;-74
2023/11/10 08:58:57;;;;;;;0.25;0.25;;;9.80;99.90;;;;;;4992664;28;20030;-72
2023/11/10 09:01:23;;;;;;;1.38;0.38;;;9.90;99.90;;;;;;5017611;28;20169;-73
2023/11/10 09:03:49;;;;;;;0.52;0.20;;;9.90;99.90;;;;;;4992365;28;20051;-73
2023/11/10 09:06:15;;;;;;;1.92;0.57;;;9.80;99.90;;;;;;5003268;28;20395;-73
2023/11/10 09:08:43;;;;;;;0.10;0.10;;;9.80;99.90;;;;;;4998741;28;20375;-73
2023/11/10 09:11:09;;;;;;;7.75;0.60;;;9.80;99.90;;;;;;4993130;28;20034;-73
2023/11/10 09:13:35;;;;;;;1.38;0.35;;;9.80;99.90;;;;;;4998597;28;20126;-73
2023/11/10 09:16:01;;;;;;;0.20;0.20;;;9.80;99.90;;;;;;4993166;28;20113;-73
2023/11/10 09:18:27;;;;;;;0.30;0.28;;;9.90;99.90;;;;;;4999687;28;20104;-73
2023/11/10 09:20:53;;;;;;;0.10;0.10;;;10.10;99.90;;;;;;5002409;28;20588;-73
2023/11/10 09:23:19;;;;;;;0.30;0.17;;;10.30;99.90;;;;;;5008065;28;20070;-73
2023/11/10 09:25:45;;;;;;;0.45;0.25;;;10.30;99.90;;;;;;4993324;28;20038;-73
2023/11/10 09:28:11;;;;;;;5.05;0.20;;;10.20;99.90;;;;;;4996522;28;20112;-73
2023/11/10 09:30:37;;;;;;;1.75;0.40;;;10.30;99.90;;;;;;4974375;28;20462;-72
2023/11/10 09:33:03;;;;;;;0.10;0.10;;;10.40;99.90;;;;;;4991285;28;20062;-73
2023/11/10 09:35:29;;;;;;;0.15;0.15;;;10.50;99.90;;;;;;5004267;28;20072;-73
2023/11/10 09:37:56;;;;;;;0.10;0.10;;;10.60;99.90;;;;;;5007978;28;20038;-73
2023/11/10 09:40:23;;;;;;;0.65;0.38;;;10.70;99.90;;;;;;4992365;28;20397;-73
2023/11/10 09:42:49;;;;;;;0.10;0.10;;;10.70;99.90;;;;;;4983086;28;20042;-73
2023/11/10 09:45:17;;;;;;;0.77;0.77;;;11.10;99.90;;;;;;5010233;28;20030;-73
2023/11/10 09:47:47;;;;;;;0.60;0.30;;;13.10;99.90;;;;;;4998629;28;20037;-73
2023/11/10 09:50:20;;;;;;;0.00;0.00;;;14.50;99.90;;;;;;4995705;28;20049;-73
2023/11/10 09:52:49;;;;;;;0.55;0.32;;;14.20;99.90;;;;;;4992011;28;20031;-73
2023/11/10 09:55:15;;;;;;;0.28;0.28;;;13.80;99.90;;;;;;5007223;28;20333;-73
2023/11/10 09:57:42;;;;;;;0.55;0.28;;;15.00;99.90;;;;;;4998848;28;20053;-74
2023/11/10 10:00:13;;;;;;;1.55;0.10;;;15.60;99.90;;;;;;4996353;28;20034;-73
2023/11/10 10:02:40;;;;;;;0.15;0.10;;;15.00;99.90;;;;;;4996369;28;20034;-71
2023/11/10 10:05:09;;;;;;;1.90;0.40;;;15.80;99.40;;;;;;4991028;28;20030;-71
2023/11/10 10:07:35;;;;;;;4.28;0.35;;;15.00;99.90;;;;;;4996312;28;20034;-71
2023/11/10 10:10:02;;;;;;;0.20;0.10;;;14.80;99.90;;;;;;4991386;28;20421;-71
2023/11/10 10:12:34;;;;;;;0.68;0.35;;;14.00;99.90;;;;;;4998153;28;20070;-71
2023/11/10 10:15:00;;;;;;;0.25;0.10;;;13.70;99.90;;;;;;4989409;28;20390;-71
2023/11/10 10:17:36;;;;;;;1.95;0.55;;;14.40;99.90;;;;;;4984216;28;20023;-71
2023/11/10 10:20:09;;;;;;;1.42;0.40;;;13.80;99.90;;;;;;4989554;28;20402;-71
2023/11/10 10:22:45;;;;;;;1.55;0.35;;;13.40;99.90;;;;;;4993981;28;20030;-71
2023/11/10 10:25:12;;;;;;;0.22;0.10;;;13.80;99.90;;;;;;4991312;28;20027;-71
2023/11/10 10:27:39;;;;;;;0.60;0.30;;;12.60;99.90;;;;;;4990288;28;20029;-71
2023/11/10 10:30:06;;;;;;;0.10;0.10;;;12.10;99.90;;;;;;4990398;28;20398;-71
2023/11/10 10:32:36;;;;;;;1.05;0.52;;;11.60;99.90;;;;;;4992458;28;20490;-72
2023/11/10 10:35:03;;;;;;;6.40;0.50;;;11.10;99.90;;;;;;4991157;28;20489;-72
2023/11/10 10:37:32;;;;;;;0.10;0.10;;;10.70;99.90;;;;;;4976484;28;20026;-72
2023/11/10 10:40:01;;;;;;;0.73;0.20;;;10.60;99.90;;;;;;4991776;28;20108;-71
2023/11/10 10:42:34;;;;;;;1.08;0.38;;;10.50;99.90;;;;;;5001256;28;20479;-71
2023/11/10 10:45:06;;;;;;;0.20;0.20;;;10.40;99.90;;;;;;4973540;28;20046;-72
2023/11/10 10:47:37;;;;;;;2.25;0.90;;;10.40;99.90;;;;;;4991077;28;20113;-72
2023/11/10 10:50:11;;;;;;;0.10;0.10;;;10.40;99.90;;;;;;5000804;28;20566;-71
2023/11/10 10:52:37;;;;;;;0.10;0.10;;;10.40;99.90;;;;;;4991716;28;20045;-70
2023/11/10 10:55:09;;;;;;;0.30;0.20;;;10.40;99.90;;;;;;4991383;28;20030;-70
2023/11/10 10:57:37;;;;;;;0.35;0.17;;;10.50;99.90;;;;;;4997146;28;20030;-70
2023/11/10 11:00:16;;;;;;;7.03;0.28;;;10.50;99.90;;;;;;4989079;28;20634;-70
2023/11/10 11:02:53;;;;;;;3.10;0.70;;;10.60;99.90;;;;;;4990004;28;20109;-70
2023/11/10 11:05:59;;;;;;;5.25;0.60;;;10.60;99.90;;;;;;4991898;28;20041;-69
2023/11/10 11:09:10;;;;;;;2.30;0.38;;;10.60;99.90;;;;;;4991566;28;20117;-69
2023/11/10 11:12:06;;;;;;;4.93;0.40;;;10.50;99.90;;;;;;4992314;28;20121;-70
2023/11/10 11:14:44;;;;;;;0.98;0.85;;;10.50;99.90;;;;;;4991643;28;20038;-70
2023/11/10 11:18:06;;;;;;;1.00;0.47;;;10.60;99.90;;;;;;4992955;28;20092;-70
2023/11/10 11:20:34;;;;;;;1.45;0.30;;;10.70;99.90;;;;;;4994991;28;20042;-70
2023/11/10 11:23:02;;;;;;;0.30;0.30;;;10.60;99.90;;;;;;4975372;28;20498;-74
2023/11/10 11:25:32;;;;;;;0.75;0.22;;;10.70;99.90;;;;;;4999097;28;20127;-71
2023/11/10 11:28:00;;;;;;;0.65;0.65;;;10.50;99.90;;;;;;4987303;28;20076;-72
2023/11/10 11:30:40;;;;;;;1.35;1.05;;;10.60;99.90;;;;;;4991394;28;20034;-71
2023/11/10 11:33:11;;;;;;;2.13;0.95;;;10.60;99.90;;;;;;4991400;28;20030;-71
2023/11/10 11:35:46;;;;;;;2.67;0.25;;;10.50;99.90;;;;;;4994207;28;20068;-71
2023/11/10 11:38:30;;;;;;;1.10;0.60;;;10.50;99.90;;;;;;4991562;28;20034;-70
2023/11/10 11:40:57;;;;;;;0.80;0.22;;;10.40;99.90;;;;;;4989690;28;20471;-70
2023/11/10 11:43:27;;;;;;;0.63;0.20;;;10.40;99.90;;;;;;4987556;28;20395;-71
2023/11/10 11:45:57;;;;;;;0.20;0.20;;;10.50;99.90;;;;;;4993073;28;20037;-71
2023/11/10 11:48:23;;;;;;;0.30;0.30;;;10.60;99.90;;;;;;5003912;28;20041;-70
2023/11/10 11:50:55;;;;;;;0.70;0.52;;;10.60;99.90;;;;;;4983289;28;20042;-70
2023/11/10 11:53:25;;;;;;;0.52;0.20;;;10.60;99.90;;;;;;5000701;28;20038;-71
2023/11/10 11:55:55;;;;;;;0.38;0.10;;;10.70;99.90;;;;;;4967368;28;20100;-72
2023/11/10 11:58:21;;;;;;;2.13;0.60;;;10.70;99.90;;;;;;4990800;28;20034;-72
2023/11/10 12:00:47;;;;;;;0.15;0.15;;;10.70;99.90;;;;;;4999837;28;20041;-73
2023/11/10 12:03:13;;;;;;;0.30;0.30;;;10.70;99.90;;;;;;4991146;28;20442;-73
2023/11/10 12:05:43;;;;;;;0.20;0.20;;;10.80;99.90;;;;;;4989213;28;21013;-72
2023/11/10 12:08:10;;;;;;;2.92;0.22;;;10.90;99.90;;;;;;4986999;28;20405;-72
2023/11/10 12:10:38;;;;;;;0.10;0.10;;;10.70;99.90;;;;;;4996160;28;20506;-71
2023/11/10 12:13:06;;;;;;;4.15;0.30;;;11.10;99.90;;;;;;4977874;28;20061;-71
2023/11/10 12:15:34;;;;;;;0.45;0.25;;;11.90;99.90;;;;;;4999424;28;20082;-70
2023/11/10 12:18:00;;;;;;;1.00;0.25;;;11.90;99.90;;;;;;4993651;28;20431;-71
2023/11/10 12:20:30;;;;;;;0.85;0.32;;;13.00;99.90;;;;;;4991846;28;20788;-70
2023/11/10 12:22:57;;;;;;;0.10;0.10;;;14.40;95.70;;;;;;4998302;28;20034;-71
2023/11/10 12:25:27;;;;;;;2.30;0.70;;;14.80;94.70;;;;;;5011681;28;20422;-70
2023/11/10 12:27:54;;;;;;;1.35;0.28;;;14.70;94.40;;;;;;5008031;28;20552;-70
2023/11/10 12:30:21;;;;;;;2.75;0.60;;;14.30;95.70;;;;;;5012086;28;20042;-70
2023/11/10 12:32:52;;;;;;;1.20;0.30;;;15.10;93.90;;;;;;4991506;28;20142;-70
2023/11/10 12:35:20;;;;;;;0.47;0.22;;;13.60;96.70;;;;;;5011607;28;20034;-70
2023/11/10 12:37:47;;;;;;;0.32;0.30;;;13.00;98.80;;;;;;4993152;28;20052;-71
2023/11/10 12:40:18;;;;;;;1.17;0.45;;;12.40;99.90;;;;;;4997349;28;20037;-71
2023/11/10 12:42:47;;;;;;;10.93;3.05;;;12.60;99.90;;;;;;4989284;28;20364;-73
2023/11/10 12:45:13;;;;;;;35.83;13.90;;;12.60;99.90;;;;;;5002772;28;20445;-72
2023/11/10 12:47:43;;;;;;;8.80;0.55;;;12.40;99.90;;;;;;4996843;28;20489;-71
2023/11/10 12:50:15;;;;;;;2.90;0.47;;;12.10;99.90;;;;;;4989006;28;20405;-70
2023/11/10 12:52:45;;;;;;;3.83;0.38;;;13.20;99.90;;;;;;4989454;28;21484;-71
2023/11/10 12:55:12;;;;;;;0.25;0.10;;;12.70;99.90;;;;;;5013002;28;20517;-70
2023/11/10 12:57:37;;;;;;;4.57;1.55;;;12.40;99.90;;;;;;5002038;28;20060;-70